sensor_id;sensor_type;location;lat;lon;timestamp;pressure;altitude;pressure_sealevel;temperature;humidity
24280;BME280;12395;42.808;23.408;2023-03-13T00:01:35;95132.66;;;-1.49;91.88
24280;BME280;12395;42.808;23.408;2023-03-13T00:04:01;95138.75;;;-1.39;91.76
24280;BME280;12395;42.808;23.408;2023-03-13T00:06:29;95141.19;;;-1.38;92.20
24280;BME280;12395;42.808;23.408;2023-03-13T00:08:57;95142.66;;;-1.45;91.65
24280;BME280;12395;42.808;23.408;2023-03-13T00:11:24;95139.38;;;-1.47;92.08
24280;BME280;12395;42.808;23.408;2023-03-13T00:13:52;95141.41;;;-1.50;92.85
24280;BME280;12395;42.808;23.408;2023-03-13T00:16:17;95140.28;;;-1.58;92.82
24280;BME280;12395;42.808;23.408;2023-03-13T00:18:44;95145.09;;;-1.53;92.99
24280;BME280;12395;42.808;23.408;2023-03-13T00:21:09;95152.03;;;-1.53;93.40
24280;BME280;12395;42.808;23.408;2023-03-13T00:23:35;95151.63;;;-1.59;92.81
24280;BME280;12395;42.808;23.408;2023-03-13T00:26:02;95156.44;;;-1.54;93.38
24280;BME280;12395;42.808;23.408;2023-03-13T00:28:29;95157.75;;;-1.60;93.27
24280;BME280;12395;42.808;23.408;2023-03-13T00:31:04;95163.22;;;-1.63;93.21
24280;BME280;12395;42.808;23.408;2023-03-13T00:33:33;95152.63;;;-1.71;92.61
24280;BME280;12395;42.808;23.408;2023-03-13T00:36:03;95150.31;;;-1.74;92.99
24280;BME280;12395;42.808;23.408;2023-03-13T00:38:28;95142.06;;;-1.79;93.87
24280;BME280;12395;42.808;23.408;2023-03-13T00:41:00;95144.41;;;-1.76;93.74
24280;BME280;12395;42.808;23.408;2023-03-13T00:43:26;95145.09;;;-1.74;93.05
24280;BME280;12395;42.808;23.408;2023-03-13T00:45:51;95144.78;;;-1.80;93.70
24280;BME280;12395;42.808;23.408;2023-03-13T00:48:16;95149.91;;;-1.90;94.47
24280;BME280;12395;42.808;23.408;2023-03-13T00:50:42;95141.28;;;-1.90;94.42
24280;BME280;12395;42.808;23.408;2023-03-13T00:53:07;95162.38;;;-1.84;95.37
24280;BME280;12395;42.808;23.408;2023-03-13T00:55:32;95159.31;;;-1.78;95.95
24280;BME280;12395;42.808;23.408;2023-03-13T00:57:57;95151.81;;;-1.92;95.53
24280;BME280;12395;42.808;23.408;2023-03-13T01:00:23;95145.22;;;-1.96;95.79
24280;BME280;12395;42.808;23.408;2023-03-13T01:02:48;95137.44;;;-1.96;95.88
24280;BME280;12395;42.808;23.408;2023-03-13T01:05:13;95146.19;;;-1.97;96.17
24280;BME280;12395;42.808;23.408;2023-03-13T01:07:38;95141.47;;;-2.03;96.21
24280;BME280;12395;42.808;23.408;2023-03-13T01:10:04;95143.97;;;-2.01;95.88
24280;BME280;12395;42.808;23.408;2023-03-13T01:12:29;95150.22;;;-2.04;94.60
24280;BME280;12395;42.808;23.408;2023-03-13T01:14:54;95145.72;;;-2.02;93.96
24280;BME280;12395;42.808;23.408;2023-03-13T01:17:20;95143.38;;;-2.05;94.25
24280;BME280;12395;42.808;23.408;2023-03-13T01:19:45;95148.84;;;-2.08;94.69
24280;BME280;12395;42.808;23.408;2023-03-13T01:22:10;95144.72;;;-2.10;94.56
24280;BME280;12395;42.808;23.408;2023-03-13T01:24:36;95147.31;;;-2.10;94.92
24280;BME280;12395;42.808;23.408;2023-03-13T01:27:01;95145.41;;;-2.08;95.46
24280;BME280;12395;42.808;23.408;2023-03-13T01:29:27;95153.69;;;-2.14;96.53
24280;BME280;12395;42.808;23.408;2023-03-13T01:31:52;95156.34;;;-2.05;96.15
24280;BME280;12395;42.808;23.408;2023-03-13T01:34:17;95164.03;;;-2.03;95.63
24280;BME280;12395;42.808;23.408;2023-03-13T01:36:42;95157.13;;;-2.14;96.94
24280;BME280;12395;42.808;23.408;2023-03-13T01:39:08;95163.94;;;-2.13;97.04
24280;BME280;12395;42.808;23.408;2023-03-13T01:41:33;95169.84;;;-2.11;97.10
24280;BME280;12395;42.808;23.408;2023-03-13T01:43:58;95170.53;;;-2.09;97.16
24280;BME280;12395;42.808;23.408;2023-03-13T01:46:25;95169.13;;;-2.13;96.34
24280;BME280;12395;42.808;23.408;2023-03-13T01:48:53;95167.50;;;-2.14;96.61
24280;BME280;12395;42.808;23.408;2023-03-13T01:53:46;95170.66;;;-2.10;94.44
24280;BME280;12395;42.808;23.408;2023-03-13T01:56:14;95172.47;;;-2.22;94.57
24280;BME280;12395;42.808;23.408;2023-03-13T01:58:41;95170.34;;;-2.17;95.22
24280;BME280;12395;42.808;23.408;2023-03-13T02:01:06;95164.69;;;-2.22;95.12
24280;BME280;12395;42.808;23.408;2023-03-13T02:03:33;95166.63;;;-2.35;96.97
24280;BME280;12395;42.808;23.408;2023-03-13T02:05:59;95165.91;;;-2.37;98.64
24280;BME280;12395;42.808;23.408;2023-03-13T02:08:35;95164.81;;;-2.23;98.35
24280;BME280;12395;42.808;23.408;2023-03-13T02:13:30;95173.16;;;-2.20;96.68
24280;BME280;12395;42.808;23.408;2023-03-13T02:15:55;95171.56;;;-2.32;96.24
24280;BME280;12395;42.808;23.408;2023-03-13T02:18:21;95185.97;;;-2.39;95.69
24280;BME280;12395;42.808;23.408;2023-03-13T02:20:46;95190.38;;;-2.51;95.51
24280;BME280;12395;42.808;23.408;2023-03-13T02:23:23;95184.16;;;-2.59;96.11
24280;BME280;12395;42.808;23.408;2023-03-13T02:25:51;95184.59;;;-2.54;97.88
24280;BME280;12395;42.808;23.408;2023-03-13T02:28:21;95199.56;;;-2.47;98.01
24280;BME280;12395;42.808;23.408;2023-03-13T02:30:48;95196.00;;;-2.46;98.13
24280;BME280;12395;42.808;23.408;2023-03-13T02:33:15;95200.28;;;-2.45;98.54
24280;BME280;12395;42.808;23.408;2023-03-13T02:35:41;95211.41;;;-2.33;98.77
24280;BME280;12395;42.808;23.408;2023-03-13T02:38:07;95227.94;;;-2.34;97.82
24280;BME280;12395;42.808;23.408;2023-03-13T02:40:36;95230.69;;;-2.47;97.54
24280;BME280;12395;42.808;23.408;2023-03-13T02:43:08;95236.09;;;-2.50;97.96
24280;BME280;12395;42.808;23.408;2023-03-13T02:45:35;95231.41;;;-2.56;98.45
24280;BME280;12395;42.808;23.408;2023-03-13T02:48:00;95229.44;;;-2.63;98.16
24280;BME280;12395;42.808;23.408;2023-03-13T02:50:25;95236.72;;;-2.57;99.13
24280;BME280;12395;42.808;23.408;2023-03-13T02:52:55;95240.94;;;-2.56;99.82
24280;BME280;12395;42.808;23.408;2023-03-13T02:55:27;95236.81;;;-2.59;100.00
24280;BME280;12395;42.808;23.408;2023-03-13T02:57:53;95227.06;;;-2.66;99.76
24280;BME280;12395;42.808;23.408;2023-03-13T03:00:18;95222.94;;;-2.69;100.00
24280;BME280;12395;42.808;23.408;2023-03-13T03:02:44;95219.78;;;-2.72;99.58
24280;BME280;12395;42.808;23.408;2023-03-13T03:05:10;95233.91;;;-2.76;98.66
24280;BME280;12395;42.808;23.408;2023-03-13T03:07:35;95237.69;;;-2.80;99.10
24280;BME280;12395;42.808;23.408;2023-03-13T03:10:01;95235.09;;;-2.80;98.92
24280;BME280;12395;42.808;23.408;2023-03-13T03:12:26;95237.69;;;-2.91;100.00
24280;BME280;12395;42.808;23.408;2023-03-13T03:14:52;95244.88;;;-2.95;100.00
24280;BME280;12395;42.808;23.408;2023-03-13T03:17:17;95252.75;;;-2.96;100.00
24280;BME280;12395;42.808;23.408;2023-03-13T03:19:42;95268.19;;;-2.95;100.00
24280;BME280;12395;42.808;23.408;2023-03-13T03:22:08;95269.50;;;-2.89;100.00
24280;BME280;12395;42.808;23.408;2023-03-13T03:24:33;95262.44;;;-2.87;100.00
24280;BME280;12395;42.808;23.408;2023-03-13T03:26:58;95271.84;;;-2.86;100.00
24280;BME280;12395;42.808;23.408;2023-03-13T03:29:23;95264.69;;;-2.83;100.00
24280;BME280;12395;42.808;23.408;2023-03-13T03:31:49;95259.50;;;-2.83;100.00
24280;BME280;12395;42.808;23.408;2023-03-13T03:34:14;95259.16;;;-2.78;100.00
24280;BME280;12395;42.808;23.408;2023-03-13T03:36:40;95259.84;;;-2.76;99.82
24280;BME280;12395;42.808;23.408;2023-03-13T03:39:06;95266.09;;;-2.79;98.33
24280;BME280;12395;42.808;23.408;2023-03-13T03:41:31;95288.94;;;-2.84;98.91
24280;BME280;12395;42.808;23.408;2023-03-13T03:43:56;95299.19;;;-2.93;100.00
24280;BME280;12395;42.808;23.408;2023-03-13T03:46:22;95295.44;;;-2.89;100.00
24280;BME280;12395;42.808;23.408;2023-03-13T03:48:48;95288.84;;;-2.93;100.00
24280;BME280;12395;42.808;23.408;2023-03-13T03:51:14;95297.91;;;-2.88;100.00
24280;BME280;12395;42.808;23.408;2023-03-13T03:53:39;95295.66;;;-2.81;100.00
24280;BME280;12395;42.808;23.408;2023-03-13T03:56:04;95305.19;;;-2.93;100.00
24280;BME280;12395;42.808;23.408;2023-03-13T03:58:29;95308.59;;;-2.92;99.53
24280;BME280;12395;42.808;23.408;2023-03-13T04:00:55;95308.59;;;-2.92;100.00
24280;BME280;12395;42.808;23.408;2023-03-13T04:03:21;95323.69;;;-2.97;100.00
24280;BME280;12395;42.808;23.408;2023-03-13T04:05:46;95319.22;;;-2.95;100.00
24280;BME280;12395;42.808;23.408;2023-03-13T04:08:11;95319.44;;;-2.98;100.00
24280;BME280;12395;42.808;23.408;2023-03-13T04:10:36;95314.75;;;-2.93;100.00
24280;BME280;12395;42.808;23.408;2023-03-13T04:13:02;95317.44;;;-2.95;100.00
24280;BME280;12395;42.808;23.408;2023-03-13T04:15:27;95329.34;;;-2.92;100.00
24280;BME280;12395;42.808;23.408;2023-03-13T04:17:53;95333.59;;;-2.91;100.00
24280;BME280;12395;42.808;23.408;2023-03-13T04:20:18;95336.66;;;-2.86;100.00
24280;BME280;12395;42.808;23.408;2023-03-13T04:22:43;95335.25;;;-2.90;100.00
24280;BME280;12395;42.808;23.408;2023-03-13T04:25:09;95342.66;;;-2.86;100.00
24280;BME280;12395;42.808;23.408;2023-03-13T04:27:34;95346.44;;;-2.90;100.00
24280;BME280;12395;42.808;23.408;2023-03-13T04:29:59;95351.41;;;-2.87;100.00
24280;BME280;12395;42.808;23.408;2023-03-13T04:32:25;95354.09;;;-2.88;99.57
24280;BME280;12395;42.808;23.408;2023-03-13T04:34:50;95363.28;;;-2.95;100.00
24280;BME280;12395;42.808;23.408;2023-03-13T04:37:15;95365.16;;;-2.97;99.80
24280;BME280;12395;42.808;23.408;2023-03-13T04:39:40;95373.03;;;-2.99;100.00
24280;BME280;12395;42.808;23.408;2023-03-13T04:42:06;95379.72;;;-3.07;99.82
24280;BME280;12395;42.808;23.408;2023-03-13T04:44:31;95375.50;;;-3.08;100.00
24280;BME280;12395;42.808;23.408;2023-03-13T04:46:56;95371.88;;;-3.06;100.00
24280;BME280;12395;42.808;23.408;2023-03-13T04:49:21;95369.63;;;-3.10;100.00
24280;BME280;12395;42.808;23.408;2023-03-13T04:51:47;95374.69;;;-3.09;100.00
24280;BME280;12395;42.808;23.408;2023-03-13T04:54:12;95379.72;;;-3.07;100.00
24280;BME280;12395;42.808;23.408;2023-03-13T04:56:37;95380.00;;;-2.99;100.00
24280;BME280;12395;42.808;23.408;2023-03-13T04:59:03;95380.09;;;-3.01;100.00
24280;BME280;12395;42.808;23.408;2023-03-13T05:01:28;95383.53;;;-3.00;100.00
24280;BME280;12395;42.808;23.408;2023-03-13T05:03:54;95385.91;;;-2.97;100.00
24280;BME280;12395;42.808;23.408;2023-03-13T05:06:19;95382.81;;;-3.02;100.00
24280;BME280;12395;42.808;23.408;2023-03-13T05:08:44;95379.75;;;-2.96;100.00
24280;BME280;12395;42.808;23.408;2023-03-13T05:11:09;95385.31;;;-2.90;100.00
24280;BME280;12395;42.808;23.408;2023-03-13T05:13:35;95400.53;;;-2.85;100.00
24280;BME280;12395;42.808;23.408;2023-03-13T05:16:00;95408.19;;;-2.84;100.00
24280;BME280;12395;42.808;23.408;2023-03-13T05:18:26;95406.88;;;-2.89;100.00
24280;BME280;12395;42.808;23.408;2023-03-13T05:20:51;95408.53;;;-2.88;100.00
24280;BME280;12395;42.808;23.408;2023-03-13T05:23:16;95414.41;;;-2.86;100.00
24280;BME280;12395;42.808;23.408;2023-03-13T05:25:42;95421.06;;;-2.82;100.00
24280;BME280;12395;42.808;23.408;2023-03-13T05:28:07;95421.19;;;-2.73;100.00
24280;BME280;12395;42.808;23.408;2023-03-13T05:30:32;95413.56;;;-2.63;100.00
24280;BME280;12395;42.808;23.408;2023-03-13T05:32:57;95405.53;;;-2.60;100.00
24280;BME280;12395;42.808;23.408;2023-03-13T05:35:23;95416.50;;;-2.57;100.00
24280;BME280;12395;42.808;23.408;2023-03-13T05:37:48;95418.28;;;-2.46;100.00
24280;BME280;12395;42.808;23.408;2023-03-13T05:40:13;95434.81;;;-2.36;100.00
24280;BME280;12395;42.808;23.408;2023-03-13T05:42:39;95448.59;;;-2.24;100.00
24280;BME280;12395;42.808;23.408;2023-03-13T05:45:04;95443.75;;;-2.18;100.00
24280;BME280;12395;42.808;23.408;2023-03-13T05:47:30;95439.88;;;-2.12;100.00
24280;BME280;12395;42.808;23.408;2023-03-13T05:49:55;95447.78;;;-2.03;100.00
24280;BME280;12395;42.808;23.408;2023-03-13T05:52:21;95443.06;;;-1.87;100.00
24280;BME280;12395;42.808;23.408;2023-03-13T05:54:46;95450.59;;;-1.73;100.00
24280;BME280;12395;42.808;23.408;2023-03-13T05:57:11;95447.06;;;-1.61;100.00
24280;BME280;12395;42.808;23.408;2023-03-13T05:59:37;95445.16;;;-1.59;100.00
24280;BME280;12395;42.808;23.408;2023-03-13T06:02:02;95444.19;;;-1.46;100.00
24280;BME280;12395;42.808;23.408;2023-03-13T06:04:27;95446.06;;;-1.37;100.00
24280;BME280;12395;42.808;23.408;2023-03-13T06:06:52;95448.63;;;-1.26;100.00
24280;BME280;12395;42.808;23.408;2023-03-13T06:09:18;95446.09;;;-1.17;99.56
24280;BME280;12395;42.808;23.408;2023-03-13T06:11:43;95441.94;;;-1.08;99.18
24280;BME280;12395;42.808;23.408;2023-03-13T06:14:08;95445.44;;;-0.98;98.89
24280;BME280;12395;42.808;23.408;2023-03-13T06:16:34;95443.75;;;-0.88;98.57
24280;BME280;12395;42.808;23.408;2023-03-13T06:18:59;95456.00;;;-0.79;97.88
24280;BME280;12395;42.808;23.408;2023-03-13T06:21:24;95461.97;;;-0.67;97.65
24280;BME280;12395;42.808;23.408;2023-03-13T06:23:50;95460.63;;;-0.62;97.33
24280;BME280;12395;42.808;23.408;2023-03-13T06:26:15;95449.06;;;-0.58;97.19
24280;BME280;12395;42.808;23.408;2023-03-13T06:28:42;95452.78;;;-0.51;96.95
24280;BME280;12395;42.808;23.408;2023-03-13T06:31:08;95444.22;;;-0.42;97.28
24280;BME280;12395;42.808;23.408;2023-03-13T06:33:34;95443.16;;;-0.30;97.11
24280;BME280;12395;42.808;23.408;2023-03-13T06:35:59;95425.66;;;-0.28;97.63
24280;BME280;12395;42.808;23.408;2023-03-13T06:38:25;95443.56;;;-0.14;97.47
24280;BME280;12395;42.808;23.408;2023-03-13T06:40:50;95455.81;;;-0.05;97.29
24280;BME280;12395;42.808;23.408;2023-03-13T06:43:16;95451.69;;;0.03;97.73
24280;BME280;12395;42.808;23.408;2023-03-13T06:45:41;95449.09;;;0.03;97.95
24280;BME280;12395;42.808;23.408;2023-03-13T06:48:06;95467.38;;;0.12;96.94
24280;BME280;12395;42.808;23.408;2023-03-13T06:50:31;95457.38;;;0.17;96.96
24280;BME280;12395;42.808;23.408;2023-03-13T06:52:57;95453.16;;;0.26;97.02
24280;BME280;12395;42.808;23.408;2023-03-13T06:55:22;95457.03;;;0.31;97.57
24280;BME280;12395;42.808;23.408;2023-03-13T06:57:48;95452.69;;;0.41;98.18
24280;BME280;12395;42.808;23.408;2023-03-13T07:00:14;95454.63;;;0.49;98.01
24280;BME280;12395;42.808;23.408;2023-03-13T07:02:39;95455.88;;;0.54;97.57
24280;BME280;12395;42.808;23.408;2023-03-13T07:05:04;95450.25;;;0.59;97.45
24280;BME280;12395;42.808;23.408;2023-03-13T07:07:30;95442.72;;;0.65;97.75
24280;BME280;12395;42.808;23.408;2023-03-13T07:09:57;95446.31;;;0.74;97.79
24280;BME280;12395;42.808;23.408;2023-03-13T07:12:22;95453.34;;;0.83;97.30
24280;BME280;12395;42.808;23.408;2023-03-13T07:14:47;95441.53;;;0.89;97.41
24280;BME280;12395;42.808;23.408;2023-03-13T07:17:12;95436.59;;;0.95;97.30
24280;BME280;12395;42.808;23.408;2023-03-13T07:19:38;95440.19;;;1.04;95.73
24280;BME280;12395;42.808;23.408;2023-03-13T07:22:03;95442.53;;;1.07;95.40
24280;BME280;12395;42.808;23.408;2023-03-13T07:24:28;95444.59;;;1.13;95.37
24280;BME280;12395;42.808;23.408;2023-03-13T07:26:53;95432.50;;;1.21;94.70
24280;BME280;12395;42.808;23.408;2023-03-13T07:29:18;95440.31;;;1.31;93.91
24280;BME280;12395;42.808;23.408;2023-03-13T07:31:44;95440.03;;;1.34;93.56
24280;BME280;12395;42.808;23.408;2023-03-13T07:34:09;95438.38;;;1.42;92.34
24280;BME280;12395;42.808;23.408;2023-03-13T07:36:34;95441.94;;;1.51;91.32
24280;BME280;12395;42.808;23.408;2023-03-13T07:39:00;95443.31;;;1.55;91.06
24280;BME280;12395;42.808;23.408;2023-03-13T07:41:25;95448.66;;;1.63;90.39
24280;BME280;12395;42.808;23.408;2023-03-13T07:43:50;95450.84;;;1.68;88.95
24280;BME280;12395;42.808;23.408;2023-03-13T07:46:16;95445.22;;;1.72;88.36
24280;BME280;12395;42.808;23.408;2023-03-13T07:48:45;95449.19;;;1.76;89.21
24280;BME280;12395;42.808;23.408;2023-03-13T07:51:21;95442.03;;;1.88;88.95
24280;BME280;12395;42.808;23.408;2023-03-13T07:53:47;95445.03;;;1.93;88.99
24280;BME280;12395;42.808;23.408;2023-03-13T07:56:22;95442.53;;;2.01;88.79
24280;BME280;12395;42.808;23.408;2023-03-13T07:58:48;95437.13;;;2.12;88.82
24280;BME280;12395;42.808;23.408;2023-03-13T08:01:24;95444.94;;;2.21;87.48
24280;BME280;12395;42.808;23.408;2023-03-13T08:03:49;95446.97;;;2.27;86.58
24280;BME280;12395;42.808;23.408;2023-03-13T08:06:16;95443.78;;;2.33;86.87
24280;BME280;12395;42.808;23.408;2023-03-13T08:08:41;95434.13;;;2.44;87.98
24280;BME280;12395;42.808;23.408;2023-03-13T08:11:11;95439.44;;;2.52;86.36
24280;BME280;12395;42.808;23.408;2023-03-13T08:13:37;95430.06;;;2.59;86.81
24280;BME280;12395;42.808;23.408;2023-03-13T08:16:03;95433.19;;;2.62;85.28
24280;BME280;12395;42.808;23.408;2023-03-13T08:18:29;95437.16;;;2.66;85.47
24280;BME280;12395;42.808;23.408;2023-03-13T08:20:59;95432.69;;;2.76;87.27
24280;BME280;12395;42.808;23.408;2023-03-13T08:23:24;95431.13;;;2.83;85.70
24280;BME280;12395;42.808;23.408;2023-03-13T08:25:50;95431.53;;;2.88;85.33
24280;BME280;12395;42.808;23.408;2023-03-13T08:28:15;95443.41;;;3.00;82.97
24280;BME280;12395;42.808;23.408;2023-03-13T08:30:40;95444.03;;;3.12;82.13
24280;BME280;12395;42.808;23.408;2023-03-13T08:33:05;95440.94;;;3.17;82.79
24280;BME280;12395;42.808;23.408;2023-03-13T08:35:31;95442.44;;;3.19;82.24
24280;BME280;12395;42.808;23.408;2023-03-13T08:37:56;95436.47;;;3.27;81.11
24280;BME280;12395;42.808;23.408;2023-03-13T08:40:21;95439.16;;;3.35;81.06
24280;BME280;12395;42.808;23.408;2023-03-13T08:42:46;95445.69;;;3.48;80.43
24280;BME280;12395;42.808;23.408;2023-03-13T08:45:12;95442.66;;;3.61;80.41
24280;BME280;12395;42.808;23.408;2023-03-13T08:47:37;95438.97;;;3.71;79.83
24280;BME280;12395;42.808;23.408;2023-03-13T08:50:02;95436.78;;;3.84;79.43
24280;BME280;12395;42.808;23.408;2023-03-13T08:52:28;95435.72;;;3.95;79.24
24280;BME280;12395;42.808;23.408;2023-03-13T08:54:53;95427.88;;;4.03;78.30
24280;BME280;12395;42.808;23.408;2023-03-13T08:57:18;95435.97;;;4.10;77.17
24280;BME280;12395;42.808;23.408;2023-03-13T08:59:44;95442.91;;;4.19;75.16
24280;BME280;12395;42.808;23.408;2023-03-13T09:02:09;95450.31;;;4.23;74.56
24280;BME280;12395;42.808;23.408;2023-03-13T09:04:34;95451.31;;;4.30;74.00
24280;BME280;12395;42.808;23.408;2023-03-13T09:06:59;95446.78;;;4.40;71.59
24280;BME280;12395;42.808;23.408;2023-03-13T09:09:25;95451.03;;;4.41;71.94
24280;BME280;12395;42.808;23.408;2023-03-13T09:11:50;95444.50;;;4.45;70.38
24280;BME280;12395;42.808;23.408;2023-03-13T09:14:15;95441.91;;;4.53;70.28
24280;BME280;12395;42.808;23.408;2023-03-13T09:16:41;95431.97;;;4.65;68.60
24280;BME280;12395;42.808;23.408;2023-03-13T09:19:06;95433.75;;;4.64;67.92
24280;BME280;12395;42.808;23.408;2023-03-13T09:21:33;95438.72;;;4.76;69.15
24280;BME280;12395;42.808;23.408;2023-03-13T09:23:59;95445.00;;;4.83;68.32
24280;BME280;12395;42.808;23.408;2023-03-13T09:26:24;95441.84;;;4.79;68.28
24280;BME280;12395;42.808;23.408;2023-03-13T09:28:50;95447.94;;;4.88;68.69
24280;BME280;12395;42.808;23.408;2023-03-13T09:31:20;95436.66;;;4.95;69.80
24280;BME280;12395;42.808;23.408;2023-03-13T09:33:46;95429.31;;;5.07;68.43
24280;BME280;12395;42.808;23.408;2023-03-13T09:36:12;95438.53;;;5.19;66.88
24280;BME280;12395;42.808;23.408;2023-03-13T09:38:38;95438.38;;;5.28;64.96
24280;BME280;12395;42.808;23.408;2023-03-13T09:46:30;95422.63;;;5.61;67.04
24280;BME280;12395;42.808;23.408;2023-03-13T09:48:58;95429.22;;;5.81;66.90
24280;BME280;12395;42.808;23.408;2023-03-13T09:51:28;95427.75;;;5.86;64.08
24280;BME280;12395;42.808;23.408;2023-03-13T09:54:00;95429.56;;;5.94;64.78
24280;BME280;12395;42.808;23.408;2023-03-13T09:56:30;95428.88;;;6.08;64.33
24280;BME280;12395;42.808;23.408;2023-03-13T09:59:00;95429.53;;;6.10;62.21
24280;BME280;12395;42.808;23.408;2023-03-13T10:01:29;95426.06;;;6.17;63.94
24280;BME280;12395;42.808;23.408;2023-03-13T10:06:27;95413.88;;;6.33;61.65
24280;BME280;12395;42.808;23.408;2023-03-13T10:08:56;95408.25;;;6.36;60.29
24280;BME280;12395;42.808;23.408;2023-03-13T10:13:52;95390.13;;;6.49;62.53
24280;BME280;12395;42.808;23.408;2023-03-13T10:16:26;95383.31;;;6.62;64.55
24280;BME280;12395;42.808;23.408;2023-03-13T10:18:54;95389.28;;;6.87;64.21
24280;BME280;12395;42.808;23.408;2023-03-13T10:21:22;95387.22;;;7.05;64.17
24280;BME280;12395;42.808;23.408;2023-03-13T10:24:12;95379.91;;;7.15;61.40
24280;BME280;12395;42.808;23.408;2023-03-13T10:26:36;95373.09;;;7.21;62.36
24280;BME280;12395;42.808;23.408;2023-03-13T10:29:14;95376.97;;;7.33;61.67
24280;BME280;12395;42.808;23.408;2023-03-13T10:31:41;95369.47;;;7.44;62.50
24280;BME280;12395;42.808;23.408;2023-03-13T10:34:10;95361.00;;;7.57;62.77
24280;BME280;12395;42.808;23.408;2023-03-13T10:36:41;95353.25;;;7.70;60.31
24280;BME280;12395;42.808;23.408;2023-03-13T10:39:07;95348.03;;;7.85;60.97
24280;BME280;12395;42.808;23.408;2023-03-13T10:41:34;95353.44;;;8.06;60.47
24280;BME280;12395;42.808;23.408;2023-03-13T10:44:03;95344.25;;;8.16;58.23
24280;BME280;12395;42.808;23.408;2023-03-13T10:46:29;95342.63;;;8.30;57.82
24280;BME280;12395;42.808;23.408;2023-03-13T10:48:56;95342.63;;;8.44;59.18
24280;BME280;12395;42.808;23.408;2023-03-13T10:51:23;95344.63;;;8.57;57.43
24280;BME280;12395;42.808;23.408;2023-03-13T10:53:49;95339.97;;;8.59;55.61
24280;BME280;12395;42.808;23.408;2023-03-13T10:56:18;95338.41;;;8.65;56.76
24280;BME280;12395;42.808;23.408;2023-03-13T10:58:45;95338.94;;;8.75;57.04
24280;BME280;12395;42.808;23.408;2023-03-13T11:03:44;95323.44;;;8.86;56.32
24280;BME280;12395;42.808;23.408;2023-03-13T11:06:24;95320.66;;;8.94;56.00
24280;BME280;12395;42.808;23.408;2023-03-13T11:08:50;95321.44;;;9.09;56.15
24280;BME280;12395;42.808;23.408;2023-03-13T11:11:22;95318.22;;;9.14;53.17
24280;BME280;12395;42.808;23.408;2023-03-13T11:13:47;95312.75;;;9.15;52.93
24280;BME280;12395;42.808;23.408;2023-03-13T11:21:03;95300.84;;;9.26;54.61
24280;BME280;12395;42.808;23.408;2023-03-13T11:23:36;95301.53;;;9.34;53.49
24280;BME280;12395;42.808;23.408;2023-03-13T11:31:39;95288.16;;;9.36;51.58
24280;BME280;12395;42.808;23.408;2023-03-13T11:34:14;95294.88;;;9.39;51.84
24280;BME280;12395;42.808;23.408;2023-03-13T11:44:42;95268.97;;;9.55;51.45
24280;BME280;12395;42.808;23.408;2023-03-13T11:50:34;95255.94;;;9.54;52.13
24280;BME280;12395;42.808;23.408;2023-03-13T12:02:43;95227.38;;;9.70;50.42
24280;BME280;12395;42.808;23.408;2023-03-13T12:05:14;95230.84;;;9.77;49.90
24280;BME280;12395;42.808;23.408;2023-03-13T12:07:43;95235.41;;;9.83;50.02
24280;BME280;12395;42.808;23.408;2023-03-13T12:10:11;95219.28;;;9.78;47.96
24280;BME280;12395;42.808;23.408;2023-03-13T12:17:39;95203.88;;;9.95;43.58
24280;BME280;12395;42.808;23.408;2023-03-13T12:20:18;95204.28;;;9.92;43.74
24280;BME280;12395;42.808;23.408;2023-03-13T12:25:42;95198.94;;;10.13;48.26
24280;BME280;12395;42.808;23.408;2023-03-13T12:30:41;95194.84;;;10.11;45.84
24280;BME280;12395;42.808;23.408;2023-03-13T12:33:24;95195.69;;;10.18;47.45
24280;BME280;12395;42.808;23.408;2023-03-13T12:36:08;95202.47;;;10.33;46.74
24280;BME280;12395;42.808;23.408;2023-03-13T12:38:40;95193.28;;;10.29;46.75
24280;BME280;12395;42.808;23.408;2023-03-13T12:44:39;95191.09;;;10.52;47.26
24280;BME280;12395;42.808;23.408;2023-03-13T12:47:07;95196.25;;;10.60;45.29
24280;BME280;12395;42.808;23.408;2023-03-13T12:57:21;95195.66;;;10.84;47.11
24280;BME280;12395;42.808;23.408;2023-03-13T12:59:53;95189.78;;;10.96;47.60
24280;BME280;12395;42.808;23.408;2023-03-13T13:02:20;95199.78;;;11.07;47.60
24280;BME280;12395;42.808;23.408;2023-03-13T13:04:47;95196.53;;;11.18;45.17
24280;BME280;12395;42.808;23.408;2023-03-13T13:07:32;95193.06;;;11.24;45.38
24280;BME280;12395;42.808;23.408;2023-03-13T13:12:26;95195.31;;;11.27;45.06
24280;BME280;12395;42.808;23.408;2023-03-13T13:19:46;95193.44;;;11.40;43.22
24280;BME280;12395;42.808;23.408;2023-03-13T13:24:58;95175.09;;;11.52;45.61
24280;BME280;12395;42.808;23.408;2023-03-13T13:30:03;95176.28;;;11.56;44.60
24280;BME280;12395;42.808;23.408;2023-03-13T13:32:51;95170.38;;;11.60;44.63
24280;BME280;12395;42.808;23.408;2023-03-13T13:37:42;95166.31;;;11.51;40.28
24280;BME280;12395;42.808;23.408;2023-03-13T13:45:32;95165.25;;;11.65;42.86
24280;BME280;12395;42.808;23.408;2023-03-13T13:51:07;95157.13;;;11.54;42.83
24280;BME280;12395;42.808;23.408;2023-03-13T13:53:32;95153.84;;;11.58;44.81
24280;BME280;12395;42.808;23.408;2023-03-13T13:55:58;95154.25;;;11.69;43.78
24280;BME280;12395;42.808;23.408;2023-03-13T13:58:26;95153.41;;;11.75;42.94
24280;BME280;12395;42.808;23.408;2023-03-13T14:03:21;95149.28;;;11.92;44.35
24280;BME280;12395;42.808;23.408;2023-03-13T14:05:48;95148.06;;;11.94;43.46
24280;BME280;12395;42.808;23.408;2023-03-13T14:08:25;95133.34;;;11.92;42.22
24280;BME280;12395;42.808;23.408;2023-03-13T14:11:02;95145.59;;;11.99;42.00
24280;BME280;12395;42.808;23.408;2023-03-13T14:13:29;95142.09;;;12.05;43.58
24280;BME280;12395;42.808;23.408;2023-03-13T14:15:54;95146.56;;;12.11;42.21
24280;BME280;12395;42.808;23.408;2023-03-13T14:18:26;95134.94;;;12.12;42.35
24280;BME280;12395;42.808;23.408;2023-03-13T14:20:53;95141.84;;;12.13;42.10
24280;BME280;12395;42.808;23.408;2023-03-13T14:25:56;95129.56;;;12.19;41.40
24280;BME280;12395;42.808;23.408;2023-03-13T14:30:48;95136.47;;;12.26;42.05
24280;BME280;12395;42.808;23.408;2023-03-13T14:33:13;95134.03;;;12.31;40.93